Veribest, TX (76886)

11:26 AM CDT on September 02, 2015 (GMT -0500)
San Angelo Regional-Mathis | | Change Station
CLOSE
Current Station
Airport
Location: San Angelo,
Elevation: 1909 ft
Nearby Weather Stations

Elev 1909 ft 31.35 °N, 100.49 °W | Updated 35 minutes ago

Clear
Clear
82 °F
Feels Like 85 °F
N
6
Wind Variable Wind from South

Today
High -- | Low -- °F
--% Chance of Precip.
Yesterday
High -- | Low -- °F
Precip. -- in
7:18 AM 8:04 PM
Waning Gibbous, 79% visible
Pressure 30.02 in
Visibility 10.0 miles
Clouds Clear
Heat Index 85 °F
Dew Point 68 °F
Humidity 62%
Rainfall 0.00 in
Snow Depth Not available.
UV 6 out of 12
Pollen 9.10 out of 12
Air Quality Not available.
Flu Activity Not available.
METAR KSJT 021551Z 18005KT 10SM CLR 28/20 A3009 RMK AO2 SLP166 T02780200
Pressure 30.02 in
Visibility 10.0 miles
Clouds Clear
Heat Index 85 °F
Dew Point 68 °F
Humidity 62%
Rainfall 0.00 in
Snow Depth Not available.
UV 6 out of 12
Pollen 9.10 out of 12
Air Quality Not available.
Flu Activity Not available.
METAR KSJT 021551Z 18005KT 10SM CLR 28/20 A3009 RMK AO2 SLP166 T02780200

10-Day Weather Forecast

×

Almanac

Astronomy

Sep. 02, 2015 Rise Set
Actual Time
Civil Twilight
Nautical Twilight
Astronomical Twilight
Moon
Length of Visible Light
Length of Day
Tomorrow will be .
, % of the Moon is Illuminated

Today's Extremes

State Highs State Lows

Community

WunderPhotos

Upload Photos

1,851,777 photos uploaded!

WunderBlogs® & News

Nearby

Air Quality

  Air Quality AQ Index Pollutant
Not available.

Snow Depth

Station Depth Elevation

Earthquake Activity

City Distance Mag. Time & Date
Minimum magnitude displayed is 2.5.

Coastal Water Temperatures

Place Temperature

Stations

Nearby Weather Stations

Station Location Temp. Windchill Dew Point Humidity Wind Precip. Elev Updated Type